createdAt,value
2019-05-02T10:49:39.489Z,73.80
2019-05-02T10:52:07.292Z,74.10
2019-05-02T10:54:37.551Z,74.30
2019-05-02T10:57:04.529Z,72.80
2019-05-02T10:59:32.884Z,73.80
2019-05-02T11:02:22.222Z,68.70
2019-05-02T11:04:53.558Z,71.90
2019-05-02T11:07:26.067Z,69.10
2019-05-02T11:09:57.116Z,71.60
2019-05-02T11:12:43.409Z,67.20
2019-05-02T11:15:22.099Z,70.00
2019-05-02T11:17:52.763Z,69.90
2019-05-02T11:20:22.398Z,68.80
2019-05-02T11:22:52.623Z,71.00
2019-05-02T11:25:19.670Z,69.70
2019-05-02T11:27:47.271Z,72.40
2019-05-02T11:30:16.803Z,69.70
2019-05-02T11:32:45.141Z,71.90
2019-05-02T11:35:12.706Z,65.30
2019-05-02T11:37:42.212Z,64.80
2019-05-02T11:40:12.656Z,65.20
2019-05-02T11:42:41.613Z,63.00
2019-05-02T11:45:11.950Z,62.70
2019-05-02T11:47:39.678Z,66.50
2019-05-02T11:50:07.422Z,64.70
2019-05-02T11:52:37.336Z,61.10
2019-05-02T11:55:06.030Z,64.70
2019-05-02T11:57:34.459Z,62.40
2019-05-02T12:00:05.077Z,61.70
2019-05-02T12:02:58.061Z,62.20
2019-05-02T12:05:31.778Z,64.00
2019-05-02T12:08:00.766Z,64.40
2019-05-02T12:10:28.023Z,63.00
2019-05-02T12:12:55.792Z,60.20
2019-05-02T12:15:23.328Z,61.00
2019-05-02T12:17:51.721Z,60.00
2019-05-02T12:20:19.250Z,62.00
2019-05-02T12:22:47.305Z,62.60
2019-05-02T12:25:15.432Z,63.90
2019-05-02T12:27:43.353Z,63.30
2019-05-02T12:30:11.866Z,66.20
2019-05-02T12:32:40.098Z,63.00
2019-05-02T12:35:08.812Z,64.60
2019-05-02T12:37:36.612Z,63.60
2019-05-02T12:40:04.460Z,64.30
2019-05-02T12:42:33.289Z,65.60
2019-05-02T12:45:02.847Z,63.40
2019-05-02T12:47:31.902Z,64.40
2019-05-02T12:50:02.960Z,64.90
2019-05-02T12:52:32.063Z,63.20
2019-05-02T12:55:02.117Z,61.60
2019-05-02T12:57:32.003Z,64.00
2019-05-02T13:00:02.039Z,62.30
2019-05-02T13:02:36.430Z,63.80
2019-05-02T13:05:04.682Z,63.70
2019-05-02T13:07:32.287Z,60.80
2019-05-02T13:09:59.967Z,59.30
2019-05-02T13:12:32.299Z,60.50
2019-05-02T13:15:02.165Z,61.00
2019-05-02T13:17:29.882Z,59.60
2019-05-02T13:20:01.463Z,60.20
2019-05-02T13:22:43.544Z,57.50
2019-05-02T13:25:13.556Z,57.30
2019-05-02T13:27:44.368Z,56.40
2019-05-02T13:30:18.283Z,58.90
2019-05-02T13:32:52.747Z,58.60
2019-05-02T13:35:37.428Z,59.00
2019-05-02T13:38:07.290Z,58.30
2019-05-02T13:40:41.818Z,58.70
2019-05-02T13:43:09.499Z,58.50
2019-05-02T13:45:47.408Z,58.90
2019-05-02T13:48:15.599Z,57.70
2019-05-02T13:50:43.947Z,58.80
2019-05-02T13:53:12.278Z,58.90
2019-05-02T13:55:45.391Z,60.00
2019-05-02T13:58:13.456Z,60.00
2019-05-02T14:00:45.964Z,60.40
2019-05-02T14:03:14.870Z,61.10
2019-05-02T14:05:50.745Z,62.10
2019-05-02T14:08:37.156Z,62.10
2019-05-02T14:11:23.542Z,61.80
2019-05-02T14:13:52.165Z,61.80
2019-05-02T14:16:22.234Z,59.40
2019-05-02T14:18:50.216Z,61.90
2019-05-02T14:21:18.018Z,62.40
2019-05-02T14:23:46.058Z,62.10
2019-05-02T14:26:27.508Z,60.80
2019-05-02T14:28:46.281Z,60.30
2019-05-02T14:31:14.310Z,57.20
2019-05-02T14:33:43.924Z,59.40
2019-05-02T14:36:11.707Z,56.70
2019-05-02T14:38:41.497Z,58.00
2019-05-02T14:41:12.449Z,56.40
2019-05-02T14:43:54.479Z,58.40
2019-05-02T14:46:28.941Z,55.80
2019-05-02T14:48:54.347Z,57.60
2019-05-02T14:51:27.434Z,56.90
2019-05-02T14:53:52.762Z,56.50
2019-05-02T14:56:42.505Z,58.10
2019-05-02T14:59:09.117Z,57.90
2019-05-02T15:01:37.729Z,55.10
2019-05-02T15:04:08.283Z,53.80
2019-05-02T15:06:38.370Z,55.20
2019-05-02T15:09:06.124Z,54.20
2019-05-02T15:11:34.978Z,55.10
2019-05-02T15:14:03.153Z,54.90
2019-05-02T15:16:40.386Z,56.20
2019-05-02T15:19:02.150Z,57.50
2019-05-02T15:21:42.226Z,58.00
2019-05-02T15:24:11.924Z,58.10
2019-05-02T15:26:39.507Z,58.50
2019-05-02T15:29:12.264Z,60.30
2019-05-02T15:31:41.998Z,58.30
2019-05-02T15:34:35.559Z,58.80
2019-05-02T15:37:02.728Z,58.80
2019-05-02T15:42:01.761Z,59.90
2019-05-02T15:44:29.583Z,60.60
2019-05-02T15:46:58.410Z,60.30
2019-05-02T15:49:26.700Z,61.10
2019-05-02T15:51:54.951Z,60.30
2019-05-02T15:54:22.820Z,60.80
2019-05-02T15:56:59.529Z,62.00
2019-05-02T15:59:32.540Z,59.40
2019-05-02T16:02:03.010Z,60.80
2019-05-02T16:04:33.902Z,61.40
2019-05-02T16:07:06.990Z,59.80
2019-05-02T16:09:32.894Z,60.00
2019-05-02T16:12:00.616Z,58.90
2019-05-02T16:14:34.117Z,59.80
2019-05-02T16:17:01.048Z,59.40
2019-05-02T16:19:32.893Z,60.20
2019-05-02T16:22:14.866Z,61.10
2019-05-02T16:24:44.013Z,60.20
2019-05-02T16:27:16.532Z,60.30
2019-05-02T16:29:43.513Z,61.10
2019-05-02T16:32:23.054Z,59.30
2019-05-02T16:34:55.456Z,60.00
2019-05-02T16:37:23.717Z,59.30
2019-05-02T16:39:51.401Z,60.20
2019-05-02T16:42:22.560Z,58.80
2019-05-02T16:44:52.230Z,60.70
2019-05-02T16:47:21.966Z,60.80
2019-05-02T16:49:53.439Z,60.40
2019-05-02T16:52:23.214Z,60.90
2019-05-02T16:54:53.058Z,61.30
2019-05-02T16:57:22.237Z,62.50
2019-05-02T16:59:55.854Z,61.90
2019-05-02T17:02:21.911Z,62.30
2019-05-02T17:04:49.521Z,61.90
2019-05-02T17:07:22.861Z,62.70
2019-05-02T17:10:16.148Z,62.00
2019-05-02T17:12:42.878Z,63.20
2019-05-02T17:15:46.306Z,62.50
2019-05-02T17:18:17.813Z,63.90
2019-05-02T17:20:46.813Z,65.50
2019-05-02T17:23:13.966Z,68.10
2019-05-02T17:25:41.942Z,70.40
2019-05-02T17:28:11.189Z,71.80
2019-05-02T17:30:40.728Z,72.50
2019-05-02T17:33:12.797Z,72.60
2019-05-02T17:35:43.435Z,73.20
2019-05-02T17:38:08.696Z,72.30
2019-05-02T17:40:36.738Z,71.80
2019-05-02T17:43:07.042Z,73.00
2019-05-02T17:45:38.561Z,73.00
2019-05-02T17:48:08.440Z,73.30
2019-05-02T17:50:58.932Z,72.20
2019-05-02T17:53:23.914Z,72.90
2019-05-02T17:55:52.564Z,72.90
2019-05-02T17:58:20.285Z,73.90
2019-05-02T18:00:52.313Z,73.60
2019-05-02T18:03:24.244Z,73.30
2019-05-02T18:05:49.404Z,73.20
2019-05-02T18:08:16.996Z,74.50
2019-05-02T18:10:44.697Z,74.50
2019-05-02T18:13:12.579Z,75.60
2019-05-02T18:15:41.761Z,77.20
2019-05-02T18:18:09.645Z,79.50
2019-05-02T18:20:44.582Z,81.10
2019-05-02T18:23:07.809Z,80.20
2019-05-02T18:25:36.745Z,79.40
2019-05-02T18:28:04.730Z,80.30
2019-05-02T18:30:32.333Z,81.90
2019-05-02T18:33:03.496Z,85.30
2019-05-02T18:35:30.053Z,87.40
2019-05-02T18:37:57.917Z,89.40
2019-05-02T18:40:29.352Z,90.60
2019-05-02T18:43:03.922Z,91.90
2019-05-02T18:45:28.469Z,92.50
2019-05-02T18:48:02.439Z,92.90
2019-05-02T18:50:36.984Z,93.20
2019-05-02T18:53:07.607Z,93.30
2019-05-02T18:55:35.597Z,93.70
2019-05-02T18:58:05.505Z,93.90
2019-05-02T19:00:37.825Z,94.30
2019-05-02T19:03:07.537Z,94.30
2019-05-02T19:05:33.438Z,94.40
2019-05-02T19:08:02.463Z,94.70
2019-05-02T19:10:32.226Z,94.80
2019-05-02T19:13:01.160Z,94.70
2019-05-02T19:15:32.471Z,95.00
2019-05-02T19:17:58.953Z,95.20
2019-05-02T19:21:04.852Z,95.30
2019-05-02T19:23:34.335Z,94.80
2019-05-02T19:26:10.250Z,93.50
2019-05-02T19:28:38.470Z,93.10
2019-05-02T19:31:07.033Z,92.80
2019-05-02T19:33:37.597Z,93.30
2019-05-02T19:36:04.551Z,92.50
2019-05-02T19:38:34.882Z,92.50
2019-05-02T19:41:05.623Z,92.60
2019-05-02T19:43:34.984Z,92.80
2019-05-02T19:46:03.136Z,92.90
2019-05-02T19:48:33.120Z,93.00
2019-05-02T19:51:02.403Z,92.60
2019-05-02T19:53:32.075Z,92.50
2019-05-02T19:56:01.288Z,92.80
2019-05-02T19:58:31.907Z,92.70
2019-05-02T20:00:59.550Z,92.90
2019-05-02T20:03:28.236Z,93.10
2019-05-02T20:06:01.165Z,92.60
2019-05-02T20:08:26.223Z,92.80
2019-05-02T20:10:58.304Z,92.90
2019-05-02T20:13:28.037Z,93.10
2019-05-02T20:16:04.386Z,93.20
2019-05-02T20:18:34.831Z,92.90
2019-05-02T20:21:23.413Z,93.20
2019-05-02T20:23:43.236Z,93.00
2019-05-02T20:26:15.421Z,92.90
2019-05-02T20:28:42.274Z,93.20
2019-05-02T20:31:12.168Z,93.30
2019-05-02T20:33:40.480Z,93.30
2019-05-02T20:36:08.066Z,93.30
2019-05-02T20:38:35.732Z,93.30
2019-05-02T20:41:03.847Z,93.50
2019-05-02T20:43:32.405Z,93.60
2019-05-02T20:46:02.377Z,93.70
2019-05-02T20:48:29.829Z,93.70
2019-05-02T20:50:58.201Z,93.90
2019-05-02T20:53:31.057Z,94.00
2019-05-02T20:55:56.040Z,94.00
2019-05-02T20:58:25.578Z,94.10
2019-05-02T21:01:05.063Z,94.10
2019-05-02T21:03:23.290Z,94.20
2019-05-02T21:06:02.338Z,94.20
2019-05-02T21:08:37.268Z,94.20
2019-05-02T21:11:05.834Z,94.20
2019-05-02T21:13:33.571Z,94.30
2019-05-02T21:16:01.902Z,94.30
2019-05-02T21:18:30.076Z,94.30
2019-05-02T21:21:02.715Z,94.50
2019-05-02T21:23:43.378Z,94.60
2019-05-02T21:26:02.119Z,94.60
2019-05-02T21:28:32.156Z,94.70
2019-05-02T21:31:06.245Z,94.80
2019-05-02T21:33:42.516Z,94.80
2019-05-02T21:36:12.053Z,94.80
2019-05-02T21:38:47.540Z,95.10
2019-05-02T21:41:17.735Z,94.90
2019-05-02T21:43:46.869Z,94.90
2019-05-02T21:46:17.940Z,95.00
2019-05-02T21:48:45.802Z,94.90
2019-05-02T21:51:25.309Z,95.00
2019-05-02T21:54:13.817Z,95.10
2019-05-02T21:56:54.902Z,95.10
2019-05-02T21:59:23.238Z,95.10
2019-05-02T22:01:53.976Z,95.10
2019-05-02T22:04:25.096Z,95.20
2019-05-02T22:06:56.585Z,95.20
2019-05-02T22:09:27.799Z,95.20
2019-05-02T22:11:55.861Z,95.40
2019-05-02T22:14:24.683Z,95.50
2019-05-02T22:16:56.109Z,95.60
2019-05-02T22:19:28.046Z,95.70
2019-05-02T22:21:57.064Z,95.90
2019-05-02T22:24:31.605Z,96.00
2019-05-02T22:27:01.918Z,96.20
2019-05-02T22:29:33.989Z,96.20
2019-05-02T22:32:03.375Z,96.20
2019-05-02T22:34:33.698Z,96.20
2019-05-02T22:37:08.895Z,96.30
2019-05-02T22:39:42.552Z,96.20
2019-05-02T22:42:18.533Z,96.30
2019-05-02T22:44:46.857Z,96.30
2019-05-02T22:47:17.880Z,96.40
2019-05-02T22:49:46.357Z,96.40
2019-05-02T22:52:21.812Z,96.50
2019-05-02T22:54:52.137Z,96.60
2019-05-02T22:57:22.584Z,96.80
2019-05-02T22:59:53.611Z,96.80
2019-05-02T23:02:22.886Z,96.80
2019-05-02T23:04:52.702Z,96.90
2019-05-02T23:07:22.167Z,97.00
2019-05-02T23:09:52.496Z,97.00
2019-05-02T23:12:22.522Z,97.20
2019-05-02T23:14:52.039Z,97.20
2019-05-02T23:17:23.140Z,97.50
2019-05-02T23:19:52.799Z,97.40
2019-05-02T23:22:21.842Z,97.60
2019-05-02T23:25:16.874Z,97.60
2019-05-02T23:27:53.164Z,97.60
2019-05-02T23:30:23.635Z,97.60
2019-05-02T23:32:56.388Z,97.50
2019-05-02T23:35:25.348Z,97.40
2019-05-02T23:37:57.139Z,97.50
2019-05-02T23:40:25.327Z,97.60
2019-05-02T23:42:57.936Z,97.70
2019-05-02T23:45:27.290Z,97.80
2019-05-02T23:47:58.432Z,97.80
2019-05-02T23:50:27.450Z,97.80
2019-05-02T23:52:56.165Z,97.80
2019-05-02T23:55:25.506Z,97.70
2019-05-02T23:57:57.004Z,97.70
